sensor_id;sensor_type;location;lat;lon;timestamp;pressure;altitude;pressure_sealevel;temperature;humidity
59825;BME280;45703;50.898;6.054;2023-04-02T00:08:19;99440.38;;;7.95;100.00
59825;BME280;45703;50.898;6.054;2023-04-02T00:15:40;99448.34;;;7.77;100.00
59825;BME280;45703;50.898;6.054;2023-04-02T00:18:08;99453.66;;;7.77;100.00
59825;BME280;45703;50.898;6.054;2023-04-02T00:20:39;99459.28;;;7.69;100.00
59825;BME280;45703;50.898;6.054;2023-04-02T00:23:10;99457.66;;;7.68;100.00
59825;BME280;45703;50.898;6.054;2023-04-02T00:25:38;99472.81;;;7.67;100.00
59825;BME280;45703;50.898;6.054;2023-04-02T00:28:18;99473.66;;;7.61;100.00
59825;BME280;45703;50.898;6.054;2023-04-02T00:31:04;99481.28;;;7.58;100.00
59825;BME280;45703;50.898;6.054;2023-04-02T00:33:30;99480.69;;;7.56;100.00
59825;BME280;45703;50.898;6.054;2023-04-02T00:35:56;99475.81;;;7.53;100.00
59825;BME280;45703;50.898;6.054;2023-04-02T00:38:40;99490.47;;;7.55;100.00
59825;BME280;45703;50.898;6.054;2023-04-02T00:41:13;99483.19;;;7.51;100.00
59825;BME280;45703;50.898;6.054;2023-04-02T00:43:43;99487.47;;;7.52;100.00
59825;BME280;45703;50.898;6.054;2023-04-02T00:46:14;99492.19;;;7.50;100.00
59825;BME280;45703;50.898;6.054;2023-04-02T00:51:34;99507.53;;;7.48;100.00
59825;BME280;45703;50.898;6.054;2023-04-02T00:54:03;99509.34;;;7.47;100.00
59825;BME280;45703;50.898;6.054;2023-04-02T00:56:42;99504.47;;;7.44;100.00
59825;BME280;45703;50.898;6.054;2023-04-02T00:59:27;99521.69;;;7.42;100.00
59825;BME280;45703;50.898;6.054;2023-04-02T01:01:58;99521.28;;;7.38;100.00
59825;BME280;45703;50.898;6.054;2023-04-02T01:04:35;99510.72;;;7.32;100.00
59825;BME280;45703;50.898;6.054;2023-04-02T01:07:07;99528.94;;;7.28;100.00
59825;BME280;45703;50.898;6.054;2023-04-02T01:20:19;99546.53;;;7.23;100.00
59825;BME280;45703;50.898;6.054;2023-04-02T01:26:33;99560.28;;;7.13;100.00
59825;BME280;45703;50.898;6.054;2023-04-02T01:31:36;99572.59;;;7.08;100.00
59825;BME280;45703;50.898;6.054;2023-04-02T01:34:05;99562.00;;;7.02;100.00
59825;BME280;45703;50.898;6.054;2023-04-02T01:42:23;99599.38;;;7.00;100.00
59825;BME280;45703;50.898;6.054;2023-04-02T01:44:50;99591.84;;;6.97;100.00
59825;BME280;45703;50.898;6.054;2023-04-02T01:47:18;99593.47;;;6.98;100.00
59825;BME280;45703;50.898;6.054;2023-04-02T01:49:46;99597.59;;;6.94;100.00
59825;BME280;45703;50.898;6.054;2023-04-02T01:52:18;99597.00;;;6.92;100.00
59825;BME280;45703;50.898;6.054;2023-04-02T01:54:50;99606.34;;;6.95;100.00
59825;BME280;45703;50.898;6.054;2023-04-02T01:57:16;99607.00;;;6.90;100.00
59825;BME280;45703;50.898;6.054;2023-04-02T01:59:42;99608.63;;;6.91;100.00
59825;BME280;45703;50.898;6.054;2023-04-02T02:02:11;99618.84;;;6.88;100.00
59825;BME280;45703;50.898;6.054;2023-04-02T02:04:38;99627.00;;;6.86;100.00
59825;BME280;45703;50.898;6.054;2023-04-02T02:07:04;99631.50;;;6.86;100.00
59825;BME280;45703;50.898;6.054;2023-04-02T02:09:35;99637.22;;;6.83;100.00
59825;BME280;45703;50.898;6.054;2023-04-02T02:12:02;99639.88;;;6.83;100.00
59825;BME280;45703;50.898;6.054;2023-04-02T02:14:29;99637.25;;;6.76;100.00
59825;BME280;45703;50.898;6.054;2023-04-02T02:16:58;99640.91;;;6.82;100.00
59825;BME280;45703;50.898;6.054;2023-04-02T02:19:31;99651.13;;;6.78;100.00
59825;BME280;45703;50.898;6.054;2023-04-02T02:22:09;99653.94;;;6.83;100.00
59825;BME280;45703;50.898;6.054;2023-04-02T02:24:37;99663.75;;;6.83;100.00
59825;BME280;45703;50.898;6.054;2023-04-02T02:27:10;99669.88;;;6.83;100.00
59825;BME280;45703;50.898;6.054;2023-04-02T02:29:39;99671.72;;;6.76;100.00
59825;BME280;45703;50.898;6.054;2023-04-02T02:32:09;99668.28;;;6.76;100.00
59825;BME280;45703;50.898;6.054;2023-04-02T02:34:39;99683.97;;;6.77;100.00
59825;BME280;45703;50.898;6.054;2023-04-02T02:37:13;99683.78;;;6.72;100.00
59825;BME280;45703;50.898;6.054;2023-04-02T02:39:45;99678.50;;;6.72;100.00
59825;BME280;45703;50.898;6.054;2023-04-02T02:42:34;99689.09;;;6.72;100.00
59825;BME280;45703;50.898;6.054;2023-04-02T02:45:03;99689.13;;;6.66;100.00
59825;BME280;45703;50.898;6.054;2023-04-02T02:47:35;99694.44;;;6.66;100.00
59825;BME280;45703;50.898;6.054;2023-04-02T02:50:05;99708.91;;;6.70;100.00
59825;BME280;45703;50.898;6.054;2023-04-02T02:52:37;99709.53;;;6.65;100.00
59825;BME280;45703;50.898;6.054;2023-04-02T02:55:11;99703.03;;;6.55;100.00
59825;BME280;45703;50.898;6.054;2023-04-02T02:57:51;99720.13;;;6.65;100.00
59825;BME280;45703;50.898;6.054;2023-04-02T03:00:18;99722.38;;;6.62;100.00
59825;BME280;45703;50.898;6.054;2023-04-02T03:02:45;99736.66;;;6.67;100.00
59825;BME280;45703;50.898;6.054;2023-04-02T03:05:20;99729.94;;;6.65;100.00
59825;BME280;45703;50.898;6.054;2023-04-02T03:07:48;99741.16;;;6.60;100.00
59825;BME280;45703;50.898;6.054;2023-04-02T03:10:56;99754.84;;;6.57;100.00
59825;BME280;45703;50.898;6.054;2023-04-02T03:13:31;99753.81;;;6.58;100.00
59825;BME280;45703;50.898;6.054;2023-04-02T03:16:11;99751.56;;;6.55;100.00
59825;BME280;45703;50.898;6.054;2023-04-02T03:21:40;99774.00;;;6.59;100.00
59825;BME280;45703;50.898;6.054;2023-04-02T03:27:33;99773.59;;;6.56;100.00
59825;BME280;45703;50.898;6.054;2023-04-02T03:32:41;99785.44;;;6.47;100.00
59825;BME280;45703;50.898;6.054;2023-04-02T03:35:21;99802.19;;;6.47;100.00
59825;BME280;45703;50.898;6.054;2023-04-02T03:41:02;99812.34;;;6.37;100.00
59825;BME280;45703;50.898;6.054;2023-04-02T03:43:47;99808.69;;;6.25;100.00
59825;BME280;45703;50.898;6.054;2023-04-02T03:46:40;99826.03;;;6.28;100.00
59825;BME280;45703;50.898;6.054;2023-04-02T03:49:35;99825.63;;;6.24;100.00
59825;BME280;45703;50.898;6.054;2023-04-02T03:52:05;99834.59;;;6.23;100.00
59825;BME280;45703;50.898;6.054;2023-04-02T03:54:33;99840.50;;;6.19;100.00
59825;BME280;45703;50.898;6.054;2023-04-02T03:56:59;99840.09;;;6.15;100.00
59825;BME280;45703;50.898;6.054;2023-04-02T04:00:16;99859.47;;;6.16;100.00
59825;BME280;45703;50.898;6.054;2023-04-02T04:02:48;99854.75;;;6.11;100.00
59825;BME280;45703;50.898;6.054;2023-04-02T04:05:26;99858.84;;;6.14;100.00
59825;BME280;45703;50.898;6.054;2023-04-02T04:07:58;99864.97;;;6.14;100.00
59825;BME280;45703;50.898;6.054;2023-04-02T04:10:26;99871.09;;;6.15;100.00
59825;BME280;45703;50.898;6.054;2023-04-02T04:12:55;99886.56;;;6.11;100.00
59825;BME280;45703;50.898;6.054;2023-04-02T04:15:36;99883.31;;;6.09;100.00
59825;BME280;45703;50.898;6.054;2023-04-02T04:20:55;99887.78;;;6.15;100.00
59825;BME280;45703;50.898;6.054;2023-04-02T04:23:27;99891.88;;;6.18;100.00
59825;BME280;45703;50.898;6.054;2023-04-02T04:32:06;99900.00;;;6.10;100.00
59825;BME280;45703;50.898;6.054;2023-04-02T04:34:35;99921.00;;;6.11;100.00
59825;BME280;45703;50.898;6.054;2023-04-02T04:37:16;99917.97;;;6.14;100.00
59825;BME280;45703;50.898;6.054;2023-04-02T04:39:57;99928.56;;;6.14;100.00
59825;BME280;45703;50.898;6.054;2023-04-02T04:42:34;99931.44;;;6.13;100.00
59825;BME280;45703;50.898;6.054;2023-04-02T04:45:20;99936.28;;;6.09;100.00
59825;BME280;45703;50.898;6.054;2023-04-02T04:47:59;99943.84;;;6.12;100.00
59825;BME280;45703;50.898;6.054;2023-04-02T04:50:33;99944.03;;;6.11;100.00
59825;BME280;45703;50.898;6.054;2023-04-02T04:53:06;99959.31;;;6.09;100.00
59825;BME280;45703;50.898;6.054;2023-04-02T04:55:39;99968.09;;;6.09;100.00
59825;BME280;45703;50.898;6.054;2023-04-02T04:58:41;99975.66;;;6.12;100.00
59825;BME280;45703;50.898;6.054;2023-04-02T05:01:28;99965.00;;;5.99;100.00
59825;BME280;45703;50.898;6.054;2023-04-02T05:04:05;99986.44;;;6.04;100.00
59825;BME280;45703;50.898;6.054;2023-04-02T05:06:42;99998.22;;;6.02;100.00
59825;BME280;45703;50.898;6.054;2023-04-02T05:09:39;100007.63;;;6.04;100.00
59825;BME280;45703;50.898;6.054;2023-04-02T05:19:59;100021.66;;;5.98;100.00
59825;BME280;45703;50.898;6.054;2023-04-02T05:22:37;100036.72;;;5.98;100.00
59825;BME280;45703;50.898;6.054;2023-04-02T05:25:27;100039.41;;;6.04;100.00
59825;BME280;45703;50.898;6.054;2023-04-02T05:28:09;100042.25;;;5.96;100.00
59825;BME280;45703;50.898;6.054;2023-04-02T05:30:45;100047.16;;;5.99;100.00
59825;BME280;45703;50.898;6.054;2023-04-02T05:33:21;100060.41;;;5.99;100.00
59825;BME280;45703;50.898;6.054;2023-04-02T05:35:54;100052.84;;;5.96;100.00
59825;BME280;45703;50.898;6.054;2023-04-02T05:38:24;100059.34;;;5.94;100.00
59825;BME280;45703;50.898;6.054;2023-04-02T05:40:58;100062.81;;;5.94;100.00
59825;BME280;45703;50.898;6.054;2023-04-02T05:43:25;100057.28;;;5.89;100.00
59825;BME280;45703;50.898;6.054;2023-04-02T05:45:53;100054.16;;;5.79;100.00
59825;BME280;45703;50.898;6.054;2023-04-02T05:48:31;100075.22;;;5.87;100.00
59825;BME280;45703;50.898;6.054;2023-04-02T05:50:59;100075.56;;;5.84;100.00
59825;BME280;45703;50.898;6.054;2023-04-02T05:53:36;100088.19;;;5.82;100.00
59825;BME280;45703;50.898;6.054;2023-04-02T05:56:24;100096.34;;;5.81;100.00
59825;BME280;45703;50.898;6.054;2023-04-02T05:58:55;100095.88;;;5.77;100.00
59825;BME280;45703;50.898;6.054;2023-04-02T06:01:45;100098.91;;;5.74;100.00
59825;BME280;45703;50.898;6.054;2023-04-02T06:04:30;100100.38;;;5.77;100.00
59825;BME280;45703;50.898;6.054;2023-04-02T06:07:10;100103.19;;;5.75;100.00
59825;BME280;45703;50.898;6.054;2023-04-02T06:09:41;100113.63;;;5.77;100.00
59825;BME280;45703;50.898;6.054;2023-04-02T06:12:18;100122.34;;;5.77;100.00
59825;BME280;45703;50.898;6.054;2023-04-02T06:14:46;100124.38;;;5.75;100.00
59825;BME280;45703;50.898;6.054;2023-04-02T06:17:14;100121.09;;;5.73;100.00
59825;BME280;45703;50.898;6.054;2023-04-02T06:19:41;100135.44;;;5.79;100.00
59825;BME280;45703;50.898;6.054;2023-04-02T06:22:13;100142.94;;;5.75;100.00
59825;BME280;45703;50.898;6.054;2023-04-02T06:24:43;100149.06;;;5.76;100.00
59825;BME280;45703;50.898;6.054;2023-04-02T06:27:12;100152.88;;;5.73;100.00
59825;BME280;45703;50.898;6.054;2023-04-02T06:29:41;100168.03;;;5.79;100.00
59825;BME280;45703;50.898;6.054;2023-04-02T06:32:10;100157.31;;;5.66;100.00
59825;BME280;45703;50.898;6.054;2023-04-02T06:34:37;100164.06;;;5.69;100.00
59825;BME280;45703;50.898;6.054;2023-04-02T06:39:36;100157.97;;;5.48;100.00
59825;BME280;45703;50.898;6.054;2023-04-02T06:42:05;100188.84;;;5.62;100.00
59825;BME280;45703;50.898;6.054;2023-04-02T06:44:35;100192.91;;;5.58;100.00
59825;BME280;45703;50.898;6.054;2023-04-02T06:49:52;100204.88;;;5.54;100.00
59825;BME280;45703;50.898;6.054;2023-04-02T06:52:32;100223.22;;;5.55;100.00
59825;BME280;45703;50.898;6.054;2023-04-02T06:54:59;100220.75;;;5.54;100.00
59825;BME280;45703;50.898;6.054;2023-04-02T06:57:28;100211.75;;;5.48;100.00
59825;BME280;45703;50.898;6.054;2023-04-02T06:59:56;100227.44;;;5.50;100.00
59825;BME280;45703;50.898;6.054;2023-04-02T07:05:07;100227.56;;;5.42;100.00
59825;BME280;45703;50.898;6.054;2023-04-02T07:07:33;100250.28;;;5.51;100.00
59825;BME280;45703;50.898;6.054;2023-04-02T07:09:59;100249.19;;;5.45;100.00
59825;BME280;45703;50.898;6.054;2023-04-02T07:12:25;100252.84;;;5.44;100.00
59825;BME280;45703;50.898;6.054;2023-04-02T07:14:51;100269.81;;;5.50;100.00
59825;BME280;45703;50.898;6.054;2023-04-02T07:17:17;100274.91;;;5.51;100.00
59825;BME280;45703;50.898;6.054;2023-04-02T07:19:44;100280.19;;;5.51;100.00
59825;BME280;45703;50.898;6.054;2023-04-02T07:22:14;100274.47;;;5.48;100.00
59825;BME280;45703;50.898;6.054;2023-04-02T07:24:39;100275.22;;;5.42;100.00
59825;BME280;45703;50.898;6.054;2023-04-02T07:27:04;100291.81;;;5.36;100.00
59825;BME280;45703;50.898;6.054;2023-04-02T07:29:30;100291.81;;;5.36;100.00
59825;BME280;45703;50.898;6.054;2023-04-02T07:31:55;100295.94;;;5.38;100.00
59825;BME280;45703;50.898;6.054;2023-04-02T07:34:21;100292.50;;;5.38;100.00
59825;BME280;45703;50.898;6.054;2023-04-02T07:36:46;100314.31;;;5.40;100.00
59825;BME280;45703;50.898;6.054;2023-04-02T07:39:13;100314.31;;;5.40;100.00
59825;BME280;45703;50.898;6.054;2023-04-02T07:41:57;100321.88;;;5.43;100.00
59825;BME280;45703;50.898;6.054;2023-04-02T07:44:22;100317.59;;;5.42;100.00
59825;BME280;45703;50.898;6.054;2023-04-02T07:46:50;100325.69;;;5.40;100.00
59825;BME280;45703;50.898;6.054;2023-04-02T07:49:15;100343.47;;;5.46;100.00
59825;BME280;45703;50.898;6.054;2023-04-02T07:51:41;100334.47;;;5.41;100.00
59825;BME280;45703;50.898;6.054;2023-04-02T07:54:06;100345.69;;;5.43;100.00
59825;BME280;45703;50.898;6.054;2023-04-02T07:56:34;100345.69;;;5.43;100.00
59825;BME280;45703;50.898;6.054;2023-04-02T07:59:00;100345.88;;;5.41;100.00
59825;BME280;45703;50.898;6.054;2023-04-02T08:01:27;100354.38;;;5.37;100.00
59825;BME280;45703;50.898;6.054;2023-04-02T08:03:55;100346.44;;;5.37;100.00
59825;BME280;45703;50.898;6.054;2023-04-02T08:06:22;100372.91;;;5.37;100.00
59825;BME280;45703;50.898;6.054;2023-04-02T08:08:47;100369.53;;;5.28;100.00
59825;BME280;45703;50.898;6.054;2023-04-02T08:11:13;100371.34;;;5.28;100.00
59825;BME280;45703;50.898;6.054;2023-04-02T08:13:38;100365.16;;;5.21;100.00
59825;BME280;45703;50.898;6.054;2023-04-02T08:16:05;100371.28;;;5.21;100.00
59825;BME280;45703;50.898;6.054;2023-04-02T08:18:31;100376.38;;;5.23;100.00
59825;BME280;45703;50.898;6.054;2023-04-02T08:20:57;100388.06;;;5.28;100.00
59825;BME280;45703;50.898;6.054;2023-04-02T08:23:23;100391.50;;;5.29;100.00
59825;BME280;45703;50.898;6.054;2023-04-02T08:25:49;100389.22;;;5.26;100.00
59825;BME280;45703;50.898;6.054;2023-04-02T08:28:15;100402.09;;;5.29;100.00
59825;BME280;45703;50.898;6.054;2023-04-02T08:30:40;100413.53;;;5.29;100.00
59825;BME280;45703;50.898;6.054;2023-04-02T08:33:06;100417.81;;;5.30;100.00
59825;BME280;45703;50.898;6.054;2023-04-02T08:35:32;100421.25;;;5.31;100.00
59825;BME280;45703;50.898;6.054;2023-04-02T08:37:57;100417.19;;;5.28;100.00
59825;BME280;45703;50.898;6.054;2023-04-02T08:40:32;100431.41;;;5.27;100.00
59825;BME280;45703;50.898;6.054;2023-04-02T08:46:07;100443.28;;;5.31;100.00
59825;BME280;45703;50.898;6.054;2023-04-02T08:48:38;100450.22;;;5.32;100.00
59825;BME280;45703;50.898;6.054;2023-04-02T08:51:06;100456.31;;;5.33;100.00
59825;BME280;45703;50.898;6.054;2023-04-02T08:53:40;100447.47;;;5.26;100.00
59825;BME280;45703;50.898;6.054;2023-04-02T08:56:19;100462.44;;;5.33;100.00
59825;BME280;45703;50.898;6.054;2023-04-02T08:58:49;100476.69;;;5.32;100.00
59825;BME280;45703;50.898;6.054;2023-04-02T09:03:46;100470.91;;;5.29;100.00
59825;BME280;45703;50.898;6.054;2023-04-02T09:06:15;100485.44;;;5.33;100.00
59825;BME280;45703;50.898;6.054;2023-04-02T09:08:43;100486.06;;;5.35;100.00
59825;BME280;45703;50.898;6.054;2023-04-02T09:13:42;100496.13;;;5.39;100.00
59825;BME280;45703;50.898;6.054;2023-04-02T09:16:12;100498.31;;;5.36;100.00
59825;BME280;45703;50.898;6.054;2023-04-02T09:18:39;100501.78;;;5.36;100.00
59825;BME280;45703;50.898;6.054;2023-04-02T09:21:33;100519.47;;;5.36;100.00
59825;BME280;45703;50.898;6.054;2023-04-02T09:24:00;100513.22;;;5.37;100.00
59825;BME280;45703;50.898;6.054;2023-04-02T09:26:29;100517.84;;;5.35;100.00
59825;BME280;45703;50.898;6.054;2023-04-02T09:29:27;100518.31;;;5.38;100.00
59825;BME280;45703;50.898;6.054;2023-04-02T09:32:31;100519.16;;;5.39;100.00
59825;BME280;45703;50.898;6.054;2023-04-02T09:37:34;100520.44;;;5.43;100.00
59825;BME280;45703;50.898;6.054;2023-04-02T09:40:26;100536.94;;;5.45;100.00
59825;BME280;45703;50.898;6.054;2023-04-02T09:43:12;100529.81;;;5.45;100.00
59825;BME280;45703;50.898;6.054;2023-04-02T09:45:40;100542.69;;;5.48;100.00
59825;BME280;45703;50.898;6.054;2023-04-02T09:49:12;100556.69;;;5.57;100.00
59825;BME280;45703;50.898;6.054;2023-04-02T09:51:31;100552.19;;;5.57;100.00
59825;BME280;45703;50.898;6.054;2023-04-02T09:56:31;100561.59;;;5.60;100.00
59825;BME280;45703;50.898;6.054;2023-04-02T09:59:05;100580.69;;;5.69;100.00
59825;BME280;45703;50.898;6.054;2023-04-02T10:01:36;100578.69;;;5.71;100.00
59825;BME280;45703;50.898;6.054;2023-04-02T10:04:04;100587.28;;;5.73;100.00
59825;BME280;45703;50.898;6.054;2023-04-02T10:06:32;100577.97;;;5.77;100.00
59825;BME280;45703;50.898;6.054;2023-04-02T10:09:18;100590.50;;;5.83;100.00
59825;BME280;45703;50.898;6.054;2023-04-02T10:11:45;100603.75;;;5.83;100.00
59825;BME280;45703;50.898;6.054;2023-04-02T10:14:20;100605.88;;;5.88;100.00
59825;BME280;45703;50.898;6.054;2023-04-02T10:16:53;100606.59;;;5.96;100.00
59825;BME280;45703;50.898;6.054;2023-04-02T10:19:35;100614.19;;;5.99;100.00
59825;BME280;45703;50.898;6.054;2023-04-02T10:22:04;100625.44;;;6.01;100.00
59825;BME280;45703;50.898;6.054;2023-04-02T10:24:33;100610.91;;;5.97;100.00
59825;BME280;45703;50.898;6.054;2023-04-02T10:32:33;100643.97;;;6.01;100.00
59825;BME280;45703;50.898;6.054;2023-04-02T10:35:04;100646.78;;;6.00;100.00
59825;BME280;45703;50.898;6.054;2023-04-02T10:45:41;100664.63;;;5.91;100.00
59825;BME280;45703;50.898;6.054;2023-04-02T10:48:34;100667.91;;;5.93;100.00
59825;BME280;45703;50.898;6.054;2023-04-02T10:57:07;100668.38;;;5.97;100.00
59825;BME280;45703;50.898;6.054;2023-04-02T10:59:38;100672.84;;;5.96;99.27
59825;BME280;45703;50.898;6.054;2023-04-02T11:02:23;100675.41;;;6.04;98.60
59825;BME280;45703;50.898;6.054;2023-04-02T11:04:51;100675.06;;;6.07;99.71
59825;BME280;45703;50.898;6.054;2023-04-02T11:07:22;100682.63;;;6.10;98.99
59825;BME280;45703;50.898;6.054;2023-04-02T11:09:51;100684.94;;;6.13;98.80
59825;BME280;45703;50.898;6.054;2023-04-02T11:12:25;100697.19;;;6.14;97.95
59825;BME280;45703;50.898;6.054;2023-04-02T11:14:55;100685.56;;;6.15;99.11
59825;BME280;45703;50.898;6.054;2023-04-02T11:17:23;100703.03;;;6.24;99.52
59825;BME280;45703;50.898;6.054;2023-04-02T11:19:49;100702.03;;;6.25;99.04
59825;BME280;45703;50.898;6.054;2023-04-02T11:24:47;100711.25;;;6.29;99.37
59825;BME280;45703;50.898;6.054;2023-04-02T11:27:17;100716.66;;;6.36;99.45
59825;BME280;45703;50.898;6.054;2023-04-02T11:30:16;100720.59;;;6.40;98.98
59825;BME280;45703;50.898;6.054;2023-04-02T11:32:45;100722.06;;;6.42;99.72
59825;BME280;45703;50.898;6.054;2023-04-02T11:35:44;100719.97;;;6.52;99.81
59825;BME280;45703;50.898;6.054;2023-04-02T11:40:54;100725.97;;;6.61;97.14
59825;BME280;45703;50.898;6.054;2023-04-02T11:46:00;100738.91;;;6.64;97.08
59825;BME280;45703;50.898;6.054;2023-04-02T11:48:30;100736.88;;;6.66;97.72
59825;BME280;45703;50.898;6.054;2023-04-02T11:50:58;100742.84;;;6.68;97.97
59825;BME280;45703;50.898;6.054;2023-04-02T11:53:33;100753.72;;;6.73;97.61
59825;BME280;45703;50.898;6.054;2023-04-02T11:56:18;100744.16;;;6.78;97.06
59825;BME280;45703;50.898;6.054;2023-04-02T12:01:15;100751.38;;;6.84;95.88
59825;BME280;45703;50.898;6.054;2023-04-02T12:09:23;100755.50;;;7.01;97.40
59825;BME280;45703;50.898;6.054;2023-04-02T12:11:53;100754.13;;;7.05;97.31
59825;BME280;45703;50.898;6.054;2023-04-02T12:19:48;100767.91;;;7.15;93.65
59825;BME280;45703;50.898;6.054;2023-04-02T12:22:19;100769.56;;;7.16;93.10
59825;BME280;45703;50.898;6.054;2023-04-02T12:24:47;100772.44;;;7.14;92.37
59825;BME280;45703;50.898;6.054;2023-04-02T12:27:18;100771.97;;;7.11;94.08
59825;BME280;45703;50.898;6.054;2023-04-02T12:29:50;100774.88;;;7.16;93.92
59825;BME280;45703;50.898;6.054;2023-04-02T12:32:29;100785.31;;;7.17;94.24
59825;BME280;45703;50.898;6.054;2023-04-02T12:34:56;100784.13;;;7.06;93.56
59825;BME280;45703;50.898;6.054;2023-04-02T12:37:27;100774.34;;;7.06;93.48
59825;BME280;45703;50.898;6.054;2023-04-02T12:39:58;100791.19;;;7.13;94.62
59825;BME280;45703;50.898;6.054;2023-04-02T12:42:35;100794.84;;;7.12;95.13
59825;BME280;45703;50.898;6.054;2023-04-02T12:45:03;100808.75;;;7.14;93.21
59825;BME280;45703;50.898;6.054;2023-04-02T12:47:29;100799.25;;;7.05;91.26
59825;BME280;45703;50.898;6.054;2023-04-02T12:49:56;100806.22;;;7.06;92.85
59825;BME280;45703;50.898;6.054;2023-04-02T12:52:24;100809.03;;;7.05;93.22
59825;BME280;45703;50.898;6.054;2023-04-02T12:55:00;100823.31;;;7.04;93.78
59825;BME280;45703;50.898;6.054;2023-04-02T12:59:58;100817.31;;;6.95;91.76
59825;BME280;45703;50.898;6.054;2023-04-02T13:02:30;100814.53;;;6.89;91.63
59825;BME280;45703;50.898;6.054;2023-04-02T13:04:58;100820.31;;;6.92;92.29
59825;BME280;45703;50.898;6.054;2023-04-02T13:07:28;100820.31;;;6.92;92.60
59825;BME280;45703;50.898;6.054;2023-04-02T13:09:56;100816.28;;;6.96;91.57
59825;BME280;45703;50.898;6.054;2023-04-02T13:12:37;100828.56;;;6.97;91.06
59825;BME280;45703;50.898;6.054;2023-04-02T13:15:19;100816.03;;;6.91;91.98
59825;BME280;45703;50.898;6.054;2023-04-02T13:17:48;100833.50;;;7.00;90.96
59825;BME280;45703;50.898;6.054;2023-04-02T13:20:30;100833.03;;;6.97;90.82
59825;BME280;45703;50.898;6.054;2023-04-02T13:22:57;100843.75;;;7.03;91.52
59825;BME280;45703;50.898;6.054;2023-04-02T13:25:28;100836.78;;;7.02;91.26
59825;BME280;45703;50.898;6.054;2023-04-02T13:27:55;100838.59;;;7.02;90.73
59825;BME280;45703;50.898;6.054;2023-04-02T13:30:23;100847.03;;;7.05;89.81
59825;BME280;45703;50.898;6.054;2023-04-02T13:32:49;100854.38;;;7.03;89.52
59825;BME280;45703;50.898;6.054;2023-04-02T13:35:15;100848.47;;;7.07;90.94
59825;BME280;45703;50.898;6.054;2023-04-02T13:37:41;100837.69;;;7.09;91.07
59825;BME280;45703;50.898;6.054;2023-04-02T13:40:11;100848.94;;;7.11;89.99
59825;BME280;45703;50.898;6.054;2023-04-02T13:42:38;100851.25;;;7.14;91.17
59825;BME280;45703;50.898;6.054;2023-04-02T13:45:07;100855.38;;;7.16;90.51
59825;BME280;45703;50.898;6.054;2023-04-02T13:47:38;100855.53;;;7.15;89.88
59825;BME280;45703;50.898;6.054;2023-04-02T13:50:04;100861.84;;;7.14;89.75
59825;BME280;45703;50.898;6.054;2023-04-02T13:52:29;100870.84;;;7.13;89.36
59825;BME280;45703;50.898;6.054;2023-04-02T13:54:56;100870.34;;;7.09;88.51
59825;BME280;45703;50.898;6.054;2023-04-02T13:57:25;100870.72;;;7.07;89.62
59825;BME280;45703;50.898;6.054;2023-04-02T13:59:50;100882.19;;;7.07;89.40
59825;BME280;45703;50.898;6.054;2023-04-02T14:02:17;100880.16;;;7.09;89.96
59825;BME280;45703;50.898;6.054;2023-04-02T14:04:48;100887.66;;;7.06;88.93
59825;BME280;45703;50.898;6.054;2023-04-02T14:15:21;100896.38;;;7.14;90.24
59825;BME280;45703;50.898;6.054;2023-04-02T14:23:51;100914.13;;;7.13;86.59
59825;BME280;45703;50.898;6.054;2023-04-02T14:28:59;100919.91;;;7.17;88.22
59825;BME280;45703;50.898;6.054;2023-04-02T14:31:33;100916.59;;;7.15;89.29
59825;BME280;45703;50.898;6.054;2023-04-02T14:37:22;100910.13;;;7.17;88.41
59825;BME280;45703;50.898;6.054;2023-04-02T14:42:48;100921.19;;;7.21;87.29
59825;BME280;45703;50.898;6.054;2023-04-02T14:48:06;100919.63;;;7.12;86.73
59825;BME280;45703;50.898;6.054;2023-04-02T14:50:38;100932.25;;;7.10;86.65
59825;BME280;45703;50.898;6.054;2023-04-02T14:53:20;100931.06;;;7.12;88.01
59825;BME280;45703;50.898;6.054;2023-04-02T14:55:50;100931.91;;;7.13;86.62
59825;BME280;45703;50.898;6.054;2023-04-02T14:58:23;100935.19;;;7.15;87.08
59825;BME280;45703;50.898;6.054;2023-04-02T15:00:57;100925.84;;;7.19;88.06
59825;BME280;45703;50.898;6.054;2023-04-02T15:03:28;100943.16;;;7.15;85.69
59825;BME280;45703;50.898;6.054;2023-04-02T15:06:04;100942.00;;;7.17;86.43
59825;BME280;45703;50.898;6.054;2023-04-02T15:08:44;100940.22;;;7.10;84.48
59825;BME280;45703;50.898;6.054;2023-04-02T15:11:19;100943.53;;;7.12;85.68
59825;BME280;45703;50.898;6.054;2023-04-02T15:13:53;100956.16;;;7.10;87.36
59825;BME280;45703;50.898;6.054;2023-04-02T15:16:22;100942.69;;;7.11;86.79
59825;BME280;45703;50.898;6.054;2023-04-02T15:18:59;100952.13;;;7.14;86.04
59825;BME280;45703;50.898;6.054;2023-04-02T15:24:22;100952.88;;;7.08;85.74
59825;BME280;45703;50.898;6.054;2023-04-02T15:29:54;100972.97;;;7.03;86.55
59825;BME280;45703;50.898;6.054;2023-04-02T15:32:35;100979.13;;;7.03;84.91
59825;BME280;45703;50.898;6.054;2023-04-02T15:43:15;100995.84;;;6.89;85.36
59825;BME280;45703;50.898;6.054;2023-04-02T16:09:30;101022.63;;;6.57;84.78
59825;BME280;45703;50.898;6.054;2023-04-02T16:12:14;101024.94;;;6.60;85.67
59825;BME280;45703;50.898;6.054;2023-04-02T16:14:42;101026.75;;;6.60;85.68
59825;BME280;45703;50.898;6.054;2023-04-02T16:17:39;101017.78;;;6.61;86.68
59825;BME280;45703;50.898;6.054;2023-04-02T16:22:42;101032.88;;;6.60;86.18
59825;BME280;45703;50.898;6.054;2023-04-02T16:25:19;101027.59;;;6.60;85.88
59825;BME280;45703;50.898;6.054;2023-04-02T16:34:16;101053.41;;;6.66;86.37
59825;BME280;45703;50.898;6.054;2023-04-02T16:39:24;101052.59;;;6.66;86.84
59825;BME280;45703;50.898;6.054;2023-04-02T16:42:03;101047.44;;;6.64;85.40
59825;BME280;45703;50.898;6.054;2023-04-02T16:49:54;101069.50;;;6.65;86.14
59825;BME280;45703;50.898;6.054;2023-04-02T16:52:54;101068.31;;;6.67;87.55
59825;BME280;45703;50.898;6.054;2023-04-02T17:00:47;101081.59;;;6.67;87.41
59825;BME280;45703;50.898;6.054;2023-04-02T17:06:47;101081.88;;;6.72;86.77